Terminal Aerodrome Forecast
Issued by NWS

Home | Current Version | Previous Version | Graphics & Text | Print | Product List | Glossary On
Versions: 1 2 3 4 5 6 7 8 9 10 11 12 13 14 15 16 17 18 19 20 21 22 23 24 25
000
FTUS43 KBIS 261200 AAA
TAFDIK
TAF AMD
KDIK 261247Z 2613/2712 29005KT P6SM BKN012 OVC050
      TEMPO 2613/2616 5SM -RA BR BKN008 OVC035
     FM261800 10007KT 4SM -SHRA BKN025
     FM270000 08007KT 5SM BR VCSH BKN035 OVC060
     FM270300 35006KT 3SM BR VCSH BKN040 OVC050=

USA.gov is the U.S. government's official web portal to all federal, state and local government web resources and services.